createdAt,value
2023-01-29T00:00:16.665Z,0.00
2023-01-29T00:01:16.359Z,0.00
2023-01-29T00:02:16.384Z,0.00
2023-01-29T00:03:16.368Z,0.00
2023-01-29T00:04:16.348Z,0.00
2023-01-29T00:05:27.439Z,0.00
2023-01-29T00:06:18.323Z,0.00
2023-01-29T00:07:16.295Z,0.00
2023-01-29T00:08:16.290Z,0.00
2023-01-29T00:09:16.297Z,0.00
2023-01-29T00:10:16.639Z,0.00
2023-01-29T00:11:16.260Z,0.00
2023-01-29T00:12:16.256Z,0.00
2023-01-29T00:13:16.250Z,0.00
2023-01-29T00:14:16.256Z,0.00
2023-01-29T00:15:16.214Z,0.00
2023-01-29T00:16:16.213Z,0.00
2023-01-29T00:17:16.278Z,0.00
2023-01-29T00:18:16.196Z,0.00
2023-01-29T00:19:16.211Z,0.00
2023-01-29T00:20:16.402Z,0.00
2023-01-29T00:21:16.164Z,0.00
2023-01-29T00:22:16.158Z,0.00
2023-01-29T00:23:16.134Z,0.00
2023-01-29T00:24:16.309Z,0.00
2023-01-29T00:25:16.135Z,0.00
2023-01-29T00:26:16.119Z,0.00
2023-01-29T00:27:16.101Z,0.00
2023-01-29T00:28:16.099Z,0.00
2023-01-29T00:29:16.106Z,0.00
2023-01-29T00:30:16.349Z,0.00
2023-01-29T00:31:16.185Z,0.00
2023-01-29T00:32:16.218Z,0.00
2023-01-29T00:33:16.039Z,0.00
2023-01-29T00:34:16.061Z,0.00
2023-01-29T00:35:16.021Z,0.00
2023-01-29T00:36:16.009Z,0.00
2023-01-29T00:37:16.002Z,0.00
2023-01-29T00:38:16.001Z,0.00
2023-01-29T00:39:16.006Z,0.00
2023-01-29T00:40:16.496Z,0.00
2023-01-29T00:41:15.962Z,0.00
2023-01-29T00:42:15.945Z,0.00
2023-01-29T00:43:15.940Z,0.00
2023-01-29T00:44:15.950Z,0.00
2023-01-29T00:45:15.927Z,0.00
2023-01-29T00:46:15.951Z,0.00
2023-01-29T00:47:15.894Z,0.00
2023-01-29T00:48:16.897Z,0.00
2023-01-29T00:49:15.910Z,0.00
2023-01-29T00:50:16.078Z,0.00
2023-01-29T00:51:15.869Z,0.00
2023-01-29T00:52:15.863Z,0.00
2023-01-29T00:53:15.852Z,0.00
2023-01-29T00:54:15.863Z,0.00
2023-01-29T00:55:15.835Z,0.00
2023-01-29T00:56:15.834Z,0.00
2023-01-29T00:57:15.811Z,0.00
2023-01-29T00:58:15.795Z,0.00
2023-01-29T00:59:15.809Z,0.00
2023-01-29T01:00:16.150Z,0.00
2023-01-29T01:01:15.807Z,0.00
2023-01-29T01:02:15.798Z,0.00
2023-01-29T01:03:15.753Z,0.00
2023-01-29T01:04:15.766Z,0.00
2023-01-29T01:05:15.747Z,0.00
2023-01-29T01:06:15.740Z,0.00
2023-01-29T01:07:15.712Z,0.00
2023-01-29T01:08:15.703Z,0.00
2023-01-29T01:09:15.716Z,0.00
2023-01-29T01:10:15.980Z,0.00
2023-01-29T01:11:15.674Z,0.00
2023-01-29T01:12:15.660Z,0.00
2023-01-29T01:13:15.650Z,0.00
2023-01-29T01:14:15.653Z,0.00
2023-01-29T01:15:15.632Z,0.00
2023-01-29T01:16:15.679Z,0.00
2023-01-29T01:17:15.611Z,0.00
2023-01-29T01:18:15.599Z,0.00
2023-01-29T01:19:16.603Z,0.00
2023-01-29T01:20:15.917Z,0.00
2023-01-29T01:21:15.567Z,0.00
2023-01-29T01:22:15.560Z,0.00
2023-01-29T01:23:15.550Z,0.00
2023-01-29T01:24:15.617Z,0.00
2023-01-29T01:25:15.545Z,0.00
2023-01-29T01:26:15.529Z,0.00
2023-01-29T01:27:15.520Z,0.00
2023-01-29T01:28:15.521Z,0.00
2023-01-29T01:29:15.518Z,0.00
2023-01-29T01:30:15.912Z,0.00
2023-01-29T01:31:15.606Z,0.00
2023-01-29T01:32:15.463Z,0.00
2023-01-29T01:33:15.453Z,0.00
2023-01-29T01:34:15.456Z,0.00
2023-01-29T01:35:15.445Z,0.00
2023-01-29T01:36:15.427Z,0.00
2023-01-29T01:37:15.417Z,0.00
2023-01-29T01:38:15.403Z,0.00
2023-01-29T01:39:15.433Z,0.00
2023-01-29T01:40:15.658Z,0.00
2023-01-29T01:41:15.376Z,0.00
2023-01-29T01:42:15.353Z,0.00
2023-01-29T01:43:15.358Z,0.00
2023-01-29T01:44:15.360Z,0.00
2023-01-29T01:45:15.342Z,0.00
2023-01-29T01:46:15.338Z,0.00
2023-01-29T01:47:15.322Z,0.00
2023-01-29T01:48:15.307Z,0.00
2023-01-29T01:49:15.318Z,0.00
2023-01-29T01:50:15.631Z,0.00
2023-01-29T01:51:15.284Z,0.00
2023-01-29T01:52:15.273Z,0.00
2023-01-29T01:53:15.267Z,0.00
2023-01-29T01:54:15.266Z,0.00
2023-01-29T01:55:15.257Z,0.00
2023-01-29T01:56:15.235Z,0.00
2023-01-29T01:57:15.218Z,0.00
2023-01-29T01:58:15.218Z,0.00
2023-01-29T01:59:15.210Z,0.00
2023-01-29T02:00:15.501Z,0.00
2023-01-29T02:01:15.239Z,0.00
2023-01-29T02:02:15.186Z,0.00
2023-01-29T02:03:15.156Z,0.00
2023-01-29T02:04:15.171Z,0.00
2023-01-29T02:05:15.151Z,0.00
2023-01-29T02:06:15.131Z,0.00
2023-01-29T02:07:15.127Z,0.00
2023-01-29T02:08:15.107Z,0.00
2023-01-29T02:09:15.117Z,0.00
2023-01-29T02:10:15.473Z,0.00
2023-01-29T02:11:15.078Z,0.00
2023-01-29T02:12:15.073Z,0.00
2023-01-29T02:13:15.055Z,0.00
2023-01-29T02:14:15.086Z,0.00
2023-01-29T02:15:15.041Z,0.00
2023-01-29T02:16:15.028Z,0.00
2023-01-29T02:17:15.055Z,0.00
2023-01-29T02:18:15.004Z,0.00
2023-01-29T02:19:15.006Z,0.00
2023-01-29T02:20:15.427Z,0.00
2023-01-29T02:21:14.982Z,0.00
2023-01-29T02:22:14.968Z,0.00
2023-01-29T02:23:14.944Z,0.00
2023-01-29T02:24:15.087Z,0.00
2023-01-29T02:25:14.957Z,0.00
2023-01-29T02:26:14.944Z,0.00
2023-01-29T02:27:14.909Z,0.00
2023-01-29T02:28:14.902Z,0.00
2023-01-29T02:29:14.916Z,0.00
2023-01-29T02:30:15.336Z,0.00
2023-01-29T02:31:14.920Z,0.00
2023-01-29T02:32:14.873Z,0.00
2023-01-29T02:33:14.861Z,0.00
2023-01-29T02:34:14.879Z,0.00
2023-01-29T02:35:14.834Z,0.00
2023-01-29T02:36:14.836Z,0.00
2023-01-29T02:37:14.826Z,0.00
2023-01-29T02:38:14.805Z,0.00
2023-01-29T02:39:14.807Z,0.00
2023-01-29T02:40:15.123Z,0.00
2023-01-29T02:41:14.776Z,0.00
2023-01-29T02:42:14.765Z,0.00
2023-01-29T02:43:14.752Z,0.00
2023-01-29T02:44:14.772Z,0.00
2023-01-29T02:45:14.733Z,0.00
2023-01-29T02:46:14.779Z,0.00
2023-01-29T02:47:14.715Z,0.00
2023-01-29T02:48:14.733Z,0.00
2023-01-29T02:49:14.715Z,0.00
2023-01-29T02:50:15.068Z,0.00
2023-01-29T02:51:14.733Z,0.00
2023-01-29T02:52:14.664Z,0.00
2023-01-29T02:53:14.663Z,0.00
2023-01-29T02:54:14.664Z,0.00
2023-01-29T02:55:14.647Z,0.00
2023-01-29T02:56:14.630Z,0.00
2023-01-29T02:57:14.678Z,0.00
2023-01-29T02:58:14.611Z,0.00
2023-01-29T02:59:14.626Z,0.00
2023-01-29T03:00:14.832Z,0.00
2023-01-29T03:01:14.593Z,0.00
2023-01-29T03:02:14.603Z,0.00
2023-01-29T03:03:14.546Z,0.00
2023-01-29T03:04:14.565Z,0.00
2023-01-29T03:05:14.542Z,0.00
2023-01-29T03:06:14.525Z,0.00
2023-01-29T03:07:14.511Z,0.00
2023-01-29T03:08:14.508Z,0.00
2023-01-29T03:09:14.503Z,0.00
2023-01-29T03:10:14.883Z,0.00
2023-01-29T03:11:14.474Z,0.00
2023-01-29T03:12:14.474Z,0.00
2023-01-29T03:13:14.462Z,0.00
2023-01-29T03:14:14.491Z,0.00
2023-01-29T03:15:14.453Z,0.00
2023-01-29T03:16:14.437Z,0.00
2023-01-29T03:17:14.421Z,0.00
2023-01-29T03:18:14.419Z,0.00
2023-01-29T03:19:14.401Z,0.00
2023-01-29T03:20:15.019Z,0.00
2023-01-29T03:21:14.378Z,0.00
2023-01-29T03:22:14.374Z,0.00
2023-01-29T03:23:14.356Z,0.00
2023-01-29T03:24:14.430Z,0.00
2023-01-29T03:25:14.394Z,0.00
2023-01-29T03:26:14.344Z,0.00
2023-01-29T03:27:14.384Z,0.00
2023-01-29T03:28:14.318Z,0.00
2023-01-29T03:29:14.310Z,0.00
2023-01-29T03:30:14.748Z,0.00
2023-01-29T03:31:14.365Z,0.00
2023-01-29T03:32:14.370Z,0.00
2023-01-29T03:33:14.270Z,0.00
2023-01-29T03:34:14.259Z,0.00
2023-01-29T03:35:14.261Z,0.00
2023-01-29T03:36:14.237Z,0.00
2023-01-29T03:37:14.231Z,0.00
2023-01-29T03:38:14.224Z,0.00
2023-01-29T03:39:14.216Z,0.00
2023-01-29T03:40:14.571Z,0.00
2023-01-29T03:41:14.213Z,0.00
2023-01-29T03:42:14.180Z,0.00
2023-01-29T03:43:14.183Z,0.00
2023-01-29T03:44:14.174Z,0.00
2023-01-29T03:45:14.178Z,0.00
2023-01-29T03:46:14.144Z,0.00
2023-01-29T03:47:14.133Z,0.00
2023-01-29T03:48:14.129Z,0.00
2023-01-29T03:49:14.115Z,0.00
2023-01-29T03:50:14.342Z,0.00
2023-01-29T03:51:14.095Z,0.00
2023-01-29T03:52:14.085Z,0.00
2023-01-29T03:53:14.075Z,0.00
2023-01-29T03:54:14.059Z,0.00
2023-01-29T03:55:14.069Z,0.00
2023-01-29T03:56:14.049Z,0.00
2023-01-29T03:57:14.037Z,0.00
2023-01-29T03:58:14.013Z,0.00
2023-01-29T03:59:14.021Z,0.00
2023-01-29T04:00:14.214Z,0.00
2023-01-29T04:01:13.997Z,0.00
2023-01-29T04:02:13.986Z,0.00
2023-01-29T04:03:13.980Z,0.00
2023-01-29T04:04:14.009Z,0.00
2023-01-29T04:05:13.970Z,0.00
2023-01-29T04:06:13.940Z,0.00
2023-01-29T04:07:13.939Z,0.00
2023-01-29T04:08:13.931Z,0.00
2023-01-29T04:09:13.916Z,0.00
2023-01-29T04:10:14.195Z,0.00
2023-01-29T04:11:13.892Z,0.00
2023-01-29T04:12:13.889Z,0.00
2023-01-29T04:13:13.877Z,0.00
2023-01-29T04:14:13.862Z,0.00
2023-01-29T04:15:13.872Z,0.00
2023-01-29T04:16:13.881Z,0.00
2023-01-29T04:17:13.844Z,0.00
2023-01-29T04:18:13.834Z,0.00
2023-01-29T04:19:13.814Z,0.00
2023-01-29T04:20:14.032Z,0.00
2023-01-29T04:21:13.802Z,0.00
2023-01-29T04:22:13.788Z,0.00
2023-01-29T04:23:13.780Z,0.00
2023-01-29T04:24:13.813Z,0.00
2023-01-29T04:25:13.784Z,0.00
2023-01-29T04:26:13.742Z,0.00
2023-01-29T04:27:13.761Z,0.00
2023-01-29T04:28:13.736Z,0.00
2023-01-29T04:29:13.721Z,0.00
2023-01-29T04:30:13.781Z,0.00
2023-01-29T04:31:13.811Z,0.00
2023-01-29T04:32:13.716Z,0.00
2023-01-29T04:33:13.678Z,0.00
2023-01-29T04:34:13.669Z,0.00
2023-01-29T04:35:13.690Z,0.00
2023-01-29T04:36:13.659Z,0.00
2023-01-29T04:37:13.653Z,0.00
2023-01-29T04:38:13.643Z,0.00
2023-01-29T04:39:13.624Z,0.00
2023-01-29T04:40:13.700Z,0.00
2023-01-29T04:41:13.614Z,0.00
2023-01-29T04:42:13.584Z,0.00
2023-01-29T04:43:13.617Z,0.00
2023-01-29T04:44:13.583Z,0.00
2023-01-29T04:45:13.587Z,0.00
2023-01-29T04:46:13.553Z,0.00
2023-01-29T04:47:13.573Z,0.00
2023-01-29T04:48:13.533Z,0.00
2023-01-29T04:49:14.537Z,0.00
2023-01-29T04:50:13.682Z,0.00
2023-01-29T04:51:13.509Z,0.00
2023-01-29T04:52:13.501Z,0.00
2023-01-29T04:53:13.490Z,0.00
2023-01-29T04:54:13.477Z,0.00
2023-01-29T04:55:13.491Z,0.00
2023-01-29T04:56:13.462Z,0.00
2023-01-29T04:57:13.451Z,0.00
2023-01-29T04:58:13.440Z,0.00
2023-01-29T04:59:13.447Z,0.00
2023-01-29T05:00:13.738Z,0.00
2023-01-29T05:01:13.426Z,0.00
2023-01-29T05:02:13.399Z,0.00
2023-01-29T05:03:13.408Z,0.00
2023-01-29T05:04:13.398Z,0.00
2023-01-29T05:05:13.402Z,0.00
2023-01-29T05:06:13.381Z,0.00
2023-01-29T05:07:13.363Z,0.00
2023-01-29T05:08:13.339Z,0.00
2023-01-29T05:09:13.337Z,0.00
2023-01-29T05:10:13.351Z,0.00
2023-01-29T05:11:13.311Z,0.00
2023-01-29T05:12:13.304Z,0.00
2023-01-29T05:13:13.296Z,0.00
2023-01-29T05:14:13.279Z,0.00
2023-01-29T05:15:13.293Z,0.00
2023-01-29T05:16:13.388Z,0.00
2023-01-29T05:17:13.281Z,0.00
2023-01-29T05:18:13.240Z,0.00
2023-01-29T05:19:13.998Z,0.00
2023-01-29T05:20:13.285Z,0.00
2023-01-29T05:21:14.218Z,0.00
2023-01-29T05:22:13.209Z,0.00
2023-01-29T05:23:13.213Z,0.00
2023-01-29T05:24:13.241Z,0.00
2023-01-29T05:25:13.192Z,0.00
2023-01-29T05:26:13.164Z,0.00
2023-01-29T05:27:13.183Z,0.00
2023-01-29T05:28:13.153Z,0.00
2023-01-29T05:29:13.142Z,0.00
2023-01-29T05:30:13.134Z,0.00
2023-01-29T05:31:13.221Z,0.00
2023-01-29T05:32:13.127Z,0.00
2023-01-29T05:33:13.099Z,0.00
2023-01-29T05:34:13.082Z,0.00
2023-01-29T05:35:13.101Z,0.00
2023-01-29T05:36:13.076Z,0.00
2023-01-29T05:37:13.066Z,0.00
2023-01-29T05:38:13.046Z,0.00
2023-01-29T05:39:13.043Z,0.00
2023-01-29T05:40:13.050Z,0.00
2023-01-29T05:41:13.022Z,0.00
2023-01-29T05:42:13.005Z,0.00
2023-01-29T05:43:13.004Z,0.00
2023-01-29T05:44:12.997Z,0.00
2023-01-29T05:45:13.030Z,0.00
2023-01-29T05:46:13.021Z,0.00
2023-01-29T05:47:12.965Z,0.00
2023-01-29T05:48:12.953Z,0.00
2023-01-29T05:49:12.949Z,0.00
2023-01-29T05:50:12.941Z,0.00
2023-01-29T05:51:12.924Z,0.00
2023-01-29T05:52:12.915Z,0.00
2023-01-29T05:53:12.909Z,0.00
2023-01-29T05:54:12.889Z,0.00
2023-01-29T05:55:13.912Z,0.00
2023-01-29T05:56:12.883Z,0.00
2023-01-29T05:57:12.868Z,0.00
2023-01-29T05:58:12.916Z,0.00
2023-01-29T05:59:12.841Z,0.00
2023-01-29T06:00:12.882Z,0.00
2023-01-29T06:01:12.838Z,0.00
2023-01-29T06:02:12.850Z,0.00
2023-01-29T06:03:12.877Z,0.00
2023-01-29T06:04:12.801Z,0.00
2023-01-29T06:05:12.821Z,0.00
2023-01-29T06:06:12.778Z,0.00
2023-01-29T06:07:12.768Z,0.00
2023-01-29T06:08:12.761Z,0.00
2023-01-29T06:09:12.756Z,0.00
2023-01-29T06:10:12.763Z,0.00
2023-01-29T06:11:12.720Z,0.00
2023-01-29T06:12:12.719Z,0.00
2023-01-29T06:13:12.713Z,0.00
2023-01-29T06:14:12.711Z,0.00
2023-01-29T06:15:12.714Z,0.00
2023-01-29T06:16:12.731Z,0.00
2023-01-29T06:17:12.681Z,0.00
2023-01-29T06:18:12.672Z,0.00
2023-01-29T06:19:12.657Z,0.00
2023-01-29T06:20:12.641Z,0.00
2023-01-29T06:21:12.648Z,0.00
2023-01-29T06:22:12.631Z,0.00
2023-01-29T06:23:12.620Z,0.00
2023-01-29T06:24:12.664Z,0.00
2023-01-29T06:25:12.630Z,0.00
2023-01-29T06:26:12.603Z,0.00
2023-01-29T06:27:12.617Z,0.00
2023-01-29T06:28:12.574Z,0.00
2023-01-29T06:29:12.563Z,0.00
2023-01-29T06:30:12.551Z,0.00
2023-01-29T06:31:39.137Z,0.00
2023-01-29T06:32:14.652Z,0.00
2023-01-29T06:33:12.525Z,4.00
2023-01-29T06:34:12.522Z,4.00
2023-01-29T06:35:12.496Z,0.00
2023-01-29T06:36:12.511Z,4.00
2023-01-29T06:37:12.486Z,4.00
2023-01-29T06:38:12.469Z,0.00
2023-01-29T06:39:12.451Z,4.00
2023-01-29T06:40:12.457Z,8.00
2023-01-29T06:41:12.463Z,8.00
2023-01-29T06:42:12.424Z,8.00
2023-01-29T06:43:12.421Z,8.00
2023-01-29T06:44:12.408Z,12.00
2023-01-29T06:45:12.405Z,12.00
2023-01-29T06:46:12.407Z,12.00
2023-01-29T06:47:12.382Z,16.00
2023-01-29T06:48:12.372Z,20.00
2023-01-29T06:49:12.365Z,20.00
2023-01-29T06:50:12.344Z,24.00
2023-01-29T06:51:12.364Z,28.00
2023-01-29T06:52:12.345Z,32.00
2023-01-29T06:53:12.330Z,32.00
2023-01-29T06:54:12.318Z,40.00
2023-01-29T06:55:12.307Z,44.00
2023-01-29T06:56:12.339Z,48.00
2023-01-29T06:57:12.281Z,56.00
2023-01-29T06:58:12.270Z,60.00
2023-01-29T06:59:12.265Z,64.00
2023-01-29T07:00:12.256Z,68.00
2023-01-29T07:01:17.489Z,76.00
2023-01-29T07:02:14.304Z,88.00
2023-01-29T07:03:12.228Z,92.00
2023-01-29T07:04:12.241Z,104.00
2023-01-29T07:05:12.213Z,116.00
2023-01-29T07:06:12.234Z,128.00
2023-01-29T07:07:12.183Z,144.00
2023-01-29T07:08:12.187Z,160.00
2023-01-29T07:09:12.168Z,176.00
2023-01-29T07:10:12.160Z,192.00
2023-01-29T07:11:12.172Z,212.00
2023-01-29T07:12:12.137Z,236.00
2023-01-29T07:13:12.130Z,256.00
2023-01-29T07:14:12.134Z,272.00
2023-01-29T07:15:12.112Z,292.00
2023-01-29T07:16:12.158Z,312.00
2023-01-29T07:17:12.089Z,340.00
2023-01-29T07:18:12.128Z,376.00
2023-01-29T07:19:12.072Z,416.00
2023-01-29T07:20:12.059Z,464.00
2023-01-29T07:21:12.073Z,516.00
2023-01-29T07:22:12.029Z,564.00
2023-01-29T07:23:12.029Z,608.00
2023-01-29T07:24:12.092Z,656.00
2023-01-29T07:25:12.010Z,712.00
2023-01-29T07:26:12.016Z,768.00
2023-01-29T07:27:11.992Z,804.00
2023-01-29T07:28:11.978Z,840.00
2023-01-29T07:29:11.972Z,880.00
2023-01-29T07:30:11.947Z,928.00
2023-01-29T07:31:12.141Z,964.00
2023-01-29T07:32:11.963Z,984.00
2023-01-29T07:33:11.928Z,972.00
2023-01-29T07:34:11.926Z,980.00
2023-01-29T07:35:11.907Z,1016.00
2023-01-29T07:36:11.935Z,1056.00
2023-01-29T07:37:11.894Z,1092.00
2023-01-29T07:38:11.892Z,1104.00
2023-01-29T07:39:11.866Z,1116.00
2023-01-29T07:40:11.864Z,1136.00
2023-01-29T07:41:11.868Z,1164.00
2023-01-29T07:42:11.842Z,1200.00
2023-01-29T07:43:11.842Z,1220.00
2023-01-29T07:44:11.825Z,1212.00
2023-01-29T07:45:11.818Z,1216.00
2023-01-29T07:46:11.864Z,1228.00
2023-01-29T07:47:11.799Z,1244.00
2023-01-29T07:48:11.793Z,1256.00
2023-01-29T07:49:11.802Z,1272.00
2023-01-29T07:50:11.756Z,1304.00
2023-01-29T07:51:11.789Z,1324.00
2023-01-29T07:52:11.763Z,1344.00
2023-01-29T07:53:11.732Z,1376.00
2023-01-29T07:54:11.732Z,1440.00
2023-01-29T07:55:11.715Z,1540.00
2023-01-29T07:56:11.728Z,1684.00
2023-01-29T07:57:11.777Z,1828.00
2023-01-29T07:58:11.678Z,1888.00
2023-01-29T07:59:11.677Z,1864.00
2023-01-29T08:00:11.684Z,1820.00
2023-01-29T08:01:11.741Z,1784.00
2023-01-29T08:02:11.688Z,1776.00
2023-01-29T08:03:11.630Z,1792.00
2023-01-29T08:04:11.684Z,1800.00
2023-01-29T08:05:11.609Z,1788.00
2023-01-29T08:06:11.617Z,1772.00
2023-01-29T08:07:11.595Z,1756.00
2023-01-29T08:08:11.585Z,1744.00
2023-01-29T08:09:11.584Z,1720.00
2023-01-29T08:10:11.579Z,1688.00
2023-01-29T08:11:11.570Z,1644.00
2023-01-29T08:12:11.545Z,1596.00
2023-01-29T08:13:11.536Z,1568.00
2023-01-29T08:14:11.519Z,1544.00
2023-01-29T08:15:11.511Z,1508.00
2023-01-29T08:16:11.567Z,1436.00
2023-01-29T08:17:11.499Z,1356.00
2023-01-29T08:18:11.482Z,1296.00
2023-01-29T08:19:11.471Z,1256.00
2023-01-29T08:20:11.463Z,1232.00
2023-01-29T08:21:13.061Z,1216.00
2023-01-29T08:22:12.439Z,1196.00
2023-01-29T08:23:11.434Z,1172.00
2023-01-29T08:24:11.437Z,1164.00
2023-01-29T08:25:11.428Z,1164.00
2023-01-29T08:26:11.467Z,1188.00
2023-01-29T08:27:11.456Z,1220.00
2023-01-29T08:28:11.387Z,1252.00
2023-01-29T08:29:11.369Z,1280.00
2023-01-29T08:30:11.354Z,1320.00
2023-01-29T08:31:11.397Z,1380.00
2023-01-29T08:32:11.342Z,1440.00
2023-01-29T08:33:11.338Z,1500.00
2023-01-29T08:34:11.327Z,1536.00
2023-01-29T08:35:11.338Z,1568.00
2023-01-29T08:36:11.331Z,1588.00
2023-01-29T08:37:11.313Z,1596.00
2023-01-29T08:38:11.281Z,1592.00
2023-01-29T08:39:11.287Z,1588.00
2023-01-29T08:40:11.267Z,1572.00
2023-01-29T08:41:11.264Z,1560.00
2023-01-29T08:42:11.230Z,1568.00
2023-01-29T08:43:11.230Z,1620.00
2023-01-29T08:44:11.224Z,1720.00
2023-01-29T08:45:11.213Z,1852.00
2023-01-29T08:46:11.266Z,1976.00
2023-01-29T08:47:11.182Z,2080.00
2023-01-29T08:48:11.181Z,2188.00
2023-01-29T08:49:11.178Z,2296.00
2023-01-29T08:50:11.163Z,2404.00
2023-01-29T08:51:11.171Z,2512.00
2023-01-29T08:52:11.136Z,2608.00
2023-01-29T08:53:11.135Z,2708.00
2023-01-29T08:54:11.124Z,2824.00
2023-01-29T08:55:11.120Z,2968.00
2023-01-29T08:56:11.129Z,3136.00
2023-01-29T08:57:11.097Z,3288.00
2023-01-29T08:58:11.078Z,3420.00
2023-01-29T08:59:11.078Z,3472.00
2023-01-29T09:00:11.074Z,3472.00
2023-01-29T09:01:11.129Z,3460.00
2023-01-29T09:02:11.091Z,3456.00
2023-01-29T09:03:11.035Z,3496.00
2023-01-29T09:04:11.036Z,3560.00
2023-01-29T09:05:11.034Z,3636.00
2023-01-29T09:06:11.039Z,3732.00
2023-01-29T09:07:11.029Z,3808.00
2023-01-29T09:08:10.999Z,3860.00
2023-01-29T09:09:10.983Z,3896.00
2023-01-29T09:10:10.972Z,3916.00
2023-01-29T09:11:10.986Z,3908.00
2023-01-29T09:12:10.954Z,3944.00
2023-01-29T09:13:10.946Z,4020.00
2023-01-29T09:14:10.931Z,4140.00
2023-01-29T09:15:10.921Z,4268.00
2023-01-29T09:16:10.931Z,4408.00
2023-01-29T09:17:10.923Z,4584.00
2023-01-29T09:18:10.901Z,4864.00
2023-01-29T09:19:10.887Z,5272.00
2023-01-29T09:20:10.884Z,5652.00
2023-01-29T09:21:10.873Z,6044.00
2023-01-29T09:22:11.891Z,6484.00
2023-01-29T09:23:10.865Z,6660.00
2023-01-29T09:24:10.881Z,6688.00
2023-01-29T09:25:10.833Z,6600.00
2023-01-29T09:26:10.853Z,6360.00
2023-01-29T09:27:10.841Z,6124.00
2023-01-29T09:28:10.810Z,6012.00
2023-01-29T09:29:10.793Z,5932.00
2023-01-29T09:30:10.782Z,5912.00
2023-01-29T09:31:10.869Z,5896.00
2023-01-29T09:32:10.796Z,5884.00
2023-01-29T09:33:10.770Z,5880.00
2023-01-29T09:34:10.748Z,5936.00
2023-01-29T09:35:10.742Z,5988.00
2023-01-29T09:36:10.737Z,6004.00
2023-01-29T09:37:10.745Z,6000.00
2023-01-29T09:38:10.709Z,6004.00
2023-01-29T09:39:10.701Z,6088.00
2023-01-29T09:40:10.692Z,6148.00
2023-01-29T09:41:10.686Z,6140.00
2023-01-29T09:42:10.702Z,6024.00
2023-01-29T09:43:10.666Z,5760.00
2023-01-29T09:44:10.662Z,5688.00
2023-01-29T09:45:10.660Z,5736.00
2023-01-29T09:46:10.692Z,5604.00
2023-01-29T09:47:10.647Z,5416.00
2023-01-29T09:48:10.624Z,5280.00
2023-01-29T09:49:10.610Z,5216.00
2023-01-29T09:50:10.605Z,5148.00
2023-01-29T09:51:10.593Z,5104.00
2023-01-29T09:52:10.608Z,5064.00
2023-01-29T09:53:10.567Z,5028.00
2023-01-29T09:54:10.577Z,4920.00
2023-01-29T09:55:10.570Z,4800.00
2023-01-29T09:56:10.548Z,4672.00
2023-01-29T09:57:10.550Z,4572.00
2023-01-29T09:58:10.540Z,4500.00
2023-01-29T09:59:10.524Z,4444.00
2023-01-29T10:00:10.515Z,4412.00
2023-01-29T10:01:10.556Z,4380.00
2023-01-29T10:02:10.596Z,4364.00
2023-01-29T10:03:10.501Z,4368.00
2023-01-29T10:04:10.481Z,4400.00
2023-01-29T10:05:10.461Z,4440.00
2023-01-29T10:06:10.461Z,4432.00
2023-01-29T10:07:10.471Z,4412.00
2023-01-29T10:08:10.453Z,4428.00
2023-01-29T10:09:10.435Z,4476.00
2023-01-29T10:10:10.434Z,4544.00
2023-01-29T10:11:10.423Z,4624.00
2023-01-29T10:12:10.428Z,4712.00
2023-01-29T10:13:10.393Z,4776.00
2023-01-29T10:14:10.397Z,4796.00
2023-01-29T10:15:10.388Z,4808.00
2023-01-29T10:16:10.371Z,4820.00
2023-01-29T10:17:10.450Z,4864.00
2023-01-29T10:18:10.352Z,4972.00
2023-01-29T10:19:10.337Z,5104.00
2023-01-29T10:20:10.342Z,5224.00
2023-01-29T10:21:10.321Z,5292.00
2023-01-29T10:22:10.340Z,5244.00
2023-01-29T10:23:10.318Z,5160.00
2023-01-29T10:24:10.313Z,5048.00
2023-01-29T10:25:10.295Z,4936.00
2023-01-29T10:26:10.318Z,4920.00
2023-01-29T10:27:10.290Z,4880.00
2023-01-29T10:28:10.272Z,4928.00
2023-01-29T10:29:10.445Z,5036.00
2023-01-29T10:30:10.241Z,5120.00
2023-01-29T10:31:10.313Z,5172.00
2023-01-29T10:32:10.398Z,5284.00
2023-01-29T10:33:10.224Z,5492.00
2023-01-29T10:34:10.207Z,5720.00
2023-01-29T10:35:10.197Z,5932.00
2023-01-29T10:36:10.195Z,6048.00
2023-01-29T10:37:10.204Z,6140.00
2023-01-29T10:38:10.166Z,6212.00
2023-01-29T10:39:10.176Z,6196.00
2023-01-29T10:40:10.153Z,6156.00
2023-01-29T10:41:10.144Z,6136.00
2023-01-29T10:42:10.162Z,6112.00
2023-01-29T10:43:10.129Z,6052.00
2023-01-29T10:44:10.113Z,5872.00
2023-01-29T10:45:11.107Z,5888.00
2023-01-29T10:46:10.112Z,5804.00
2023-01-29T10:47:10.147Z,5700.00
2023-01-29T10:48:10.097Z,5632.00
2023-01-29T10:49:10.093Z,5720.00
2023-01-29T10:50:10.068Z,5780.00
2023-01-29T10:51:10.058Z,5824.00
2023-01-29T10:52:10.065Z,5948.00
2023-01-29T10:53:10.042Z,6152.00
2023-01-29T10:54:10.053Z,6376.00
2023-01-29T10:55:10.026Z,6548.00
2023-01-29T10:56:21.863Z,6688.00
2023-01-29T10:57:12.039Z,6700.00
2023-01-29T10:58:09.997Z,6568.00
2023-01-29T10:59:10.013Z,6488.00
2023-01-29T11:00:09.995Z,6404.00
2023-01-29T11:01:09.981Z,6284.00
2023-01-29T11:02:09.987Z,6160.00
2023-01-29T11:03:12.604Z,5996.00
2023-01-29T11:04:11.968Z,5832.00
2023-01-29T11:05:10.293Z,5732.00
2023-01-29T11:06:09.935Z,5672.00
2023-01-29T11:07:09.948Z,5640.00
2023-01-29T11:08:09.921Z,5628.00
2023-01-29T11:09:09.910Z,5640.00
2023-01-29T11:10:09.900Z,5572.00
2023-01-29T11:11:09.918Z,5508.00
2023-01-29T11:12:09.901Z,5464.00
2023-01-29T11:13:09.880Z,5376.00
2023-01-29T11:14:09.864Z,5248.00
2023-01-29T11:15:09.849Z,5184.00
2023-01-29T11:16:09.849Z,5204.00
2023-01-29T11:17:09.939Z,5208.00
2023-01-29T11:18:09.829Z,5136.00
2023-01-29T11:19:09.821Z,5020.00
2023-01-29T11:20:09.816Z,4836.00
2023-01-29T11:21:09.805Z,4748.00
2023-01-29T11:22:09.811Z,4756.00
2023-01-29T11:23:09.792Z,4752.00
2023-01-29T11:24:09.772Z,4656.00
2023-01-29T11:25:09.773Z,4508.00
2023-01-29T11:26:09.772Z,4392.00
2023-01-29T11:27:09.763Z,4332.00
2023-01-29T11:28:09.741Z,4352.00
2023-01-29T11:29:09.735Z,4444.00
2023-01-29T11:30:09.712Z,4608.00
2023-01-29T11:31:09.772Z,4836.00
2023-01-29T11:32:09.738Z,4696.00
2023-01-29T11:33:09.697Z,4424.00
2023-01-29T11:34:09.685Z,4516.00
2023-01-29T11:35:09.676Z,4756.00
2023-01-29T11:36:09.664Z,4672.00
2023-01-29T11:37:09.685Z,4548.00
2023-01-29T11:38:09.641Z,4692.00
2023-01-29T11:39:09.637Z,4984.00
2023-01-29T11:40:09.670Z,5228.00
2023-01-29T11:41:09.617Z,5464.00
2023-01-29T11:42:09.620Z,5656.00
2023-01-29T11:43:09.640Z,5788.00
2023-01-29T11:44:09.594Z,5944.00
2023-01-29T11:45:09.587Z,6000.00
2023-01-29T11:46:09.585Z,6008.00
2023-01-29T11:47:09.590Z,6064.00
2023-01-29T11:48:09.559Z,6160.00
2023-01-29T11:49:20.341Z,6232.00
2023-01-29T11:50:11.552Z,6296.00
2023-01-29T11:51:09.529Z,6216.00
2023-01-29T11:52:09.550Z,6008.00
2023-01-29T11:53:09.536Z,5828.00
2023-01-29T11:54:09.513Z,5828.00
2023-01-29T11:55:09.522Z,5876.00
2023-01-29T11:56:09.505Z,5828.00
2023-01-29T11:57:09.505Z,5644.00
2023-01-29T11:58:09.478Z,5592.00
2023-01-29T11:59:09.478Z,5596.00
2023-01-29T12:00:09.461Z,5444.00
2023-01-29T12:01:09.460Z,5360.00
2023-01-29T12:02:09.466Z,5556.00
2023-01-29T12:03:09.447Z,5584.00
2023-01-29T12:04:09.453Z,5296.00
2023-01-29T12:05:09.427Z,5340.00
2023-01-29T12:06:09.488Z,5540.00
2023-01-29T12:07:09.430Z,5788.00
2023-01-29T12:08:09.404Z,5928.00
2023-01-29T12:09:09.394Z,5964.00
2023-01-29T12:10:09.376Z,5936.00
2023-01-29T12:11:09.374Z,5864.00
2023-01-29T12:12:10.389Z,5880.00
2023-01-29T12:13:09.364Z,5932.00
2023-01-29T12:14:09.347Z,5936.00
2023-01-29T12:15:09.342Z,5960.00
2023-01-29T12:16:09.372Z,6084.00
2023-01-29T12:17:09.411Z,5936.00
2023-01-29T12:18:09.314Z,5804.00
2023-01-29T12:19:09.310Z,5860.00
2023-01-29T12:20:09.300Z,5848.00
2023-01-29T12:21:09.295Z,5980.00
2023-01-29T12:22:09.285Z,5964.00
2023-01-29T12:23:09.302Z,6044.00
2023-01-29T12:24:09.281Z,6008.00
2023-01-29T12:25:09.272Z,6032.00
2023-01-29T12:26:09.291Z,6144.00
2023-01-29T12:27:09.256Z,6292.00
2023-01-29T12:28:09.700Z,6384.00
2023-01-29T12:29:10.239Z,6392.00
2023-01-29T12:30:09.216Z,6524.00
2023-01-29T12:31:09.304Z,6512.00
2023-01-29T12:32:09.212Z,6612.00
2023-01-29T12:33:09.224Z,6596.00
2023-01-29T12:34:09.199Z,6520.00
2023-01-29T12:35:09.186Z,6188.00
2023-01-29T12:36:10.826Z,5900.00
2023-01-29T12:37:10.175Z,5800.00
2023-01-29T12:38:09.180Z,5844.00
2023-01-29T12:39:09.154Z,6156.00
2023-01-29T12:40:09.152Z,6284.00
2023-01-29T12:41:09.140Z,6132.00
2023-01-29T12:42:09.132Z,6000.00
2023-01-29T12:43:09.150Z,5860.00
2023-01-29T12:44:09.114Z,5692.00